MST,Max TemperatureF,Mean TemperatureF,Min TemperatureF,Max Dew PointF,MeanDew PointF,Min DewpointF,Max Humidity, Mean Humidity, Min Humidity, Max Sea Level PressureIn, Mean Sea Level PressureIn, Min Sea Level PressureIn, Max VisibilityMiles, Mean VisibilityMiles, Min VisibilityMiles, Max Wind SpeedMPH, Mean Wind SpeedMPH, Max Gust SpeedMPH,PrecipitationIn, CloudCover, Events, WindDirDegrees
2012-2-1,48,32,15,28,18,12,88,64,33,30.35,30.17,30.00,10,10,10,14,2,22,0.00,1,,192
2012-2-2,37,28,19,28,24,16,93,79,59,30.04,29.94,29.87,10,8,0,10,3,17,0.00,5,Fog-Snow,354
2012-2-3,37,26,15,26,17,11,92,73,44,30.24,30.12,30.00,10,10,10,10,3,18,0.00,2,,58
2012-2-4,41,28,15,23,20,13,93,67,47,30.25,30.18,30.12,10,10,10,21,9,24,0.00,1,,57
2012-2-5,41,32,23,24,23,20,88,67,49,30.17,30.12,30.05,10,10,10,17,10,25,0.00,2,,64
2012-2-6,42,28,15,22,12,1,92,61,19,30.22,30.13,30.06,10,10,10,9,2,20,0.00,0,,4
2012-2-7,37,29,21,17,14,10,68,48,36,30.22,30.15,30.11,10,10,10,18,8,26,0.00,3,,84
2012-2-8,52,39,26,27,20,14,78,48,34,30.30,30.16,30.09,10,10,10,10,5,,0.00,4,,53
2012-2-9,53,36,19,24,19,16,89,62,24,30.35,30.26,30.20,10,10,10,10,2,18,0.00,1,,313
2012-2-10,55,38,21,25,21,18,89,62,25,30.32,30.21,30.12,10,10,10,7,2,17,0.00,0,,59
2012-2-11,55,38,21,23,19,14,88,51,21,30.11,29.95,29.74,10,10,10,20,5,34,0.00,0,,201
2012-2-12,39,34,28,33,28,20,96,81,48,29.91,29.82,29.70,10,7,0,14,7,22,0.11,7,Fog-Snow,231
2012-2-13,37,32,27,30,28,25,93,83,65,29.91,29.83,29.70,10,8,1,22,10,32,0.03,7,Snow,208
2012-2-14,30,16,3,29,20,0,100,88,66,30.04,29.80,29.70,10,5,0,25,8,39,0.16,7,Fog-Snow,253
2012-2-15,32,26,19,27,23,18,93,85,69,30.04,29.96,29.93,10,8,0,14,5,23,0.02,8,Fog-Snow,185
2012-2-16,39,32,25,24,21,18,85,65,49,30.14,30.10,30.01,10,10,10,20,11,29,0.00,1,,51
2012-2-17,46,30,15,20,16,9,88,61,22,30.20,30.13,30.05,10,10,10,8,4,,0.00,0,,22
2012-2-18,50,32,14,21,16,10,86,55,23,30.19,30.06,29.91,10,10,10,15,4,21,0.00,0,,224
2012-2-19,35,30,19,27,24,15,86,74,59,30.02,29.84,29.77,10,7,1,21,11,28,0.03,6,Snow-Thunderstorm,247
2012-2-20,42,26,10,16,11,4,88,61,21,30.23,30.13,30.03,10,10,10,6,3,,0.00,0,,35
2012-2-21,50,32,15,20,14,7,88,57,21,30.27,30.21,30.16,10,10,10,9,3,16,0.00,0,,356
2012-2-22,55,38,21,27,23,18,89,68,31,30.25,30.13,29.96,10,10,10,9,2,17,0.00,0,,339
2012-2-23,52,36,21,27,20,15,92,60,30,30.10,29.97,29.89,10,10,10,12,3,22,0.00,0,,310
2012-2-24,48,32,17,16,8,3,81,43,16,30.27,30.21,30.11,10,10,10,15,7,24,0.00,0,,61
2012-2-25,55,36,16,16,11,1,84,47,14,30.20,30.07,29.97,10,10,10,20,4,28,0.00,0,,265
2012-2-26,48,29,10,15,4,-2,84,41,14,30.09,29.99,29.90,10,10,10,13,4,20,0.00,1,,76
2012-2-27,52,36,19,28,22,9,93,64,25,29.90,29.77,29.64,10,9,0,30,8,46,0.07,4,Fog-Snow,216
2012-2-28,30,20,5,28,21,-2,100,89,30,30.32,29.90,29.60,10,4,0,26,15,38,0.28,7,Fog-Snow,218
2012-2-29,42,36,28,24,19,16,59,53,39,30.25,30.10,30.01,10,10,10,18,5,29,0.00,0,Rain,219